sensor_id;sensor_type;location;lat;lon;timestamp;P1;durP1;ratioP1;P2;durP2;ratioP2
35442;SDS011;21561;55.654;37.592;2024-02-21T00:00:39;20.42;;;7.10;;
35442;SDS011;21561;55.654;37.592;2024-02-21T00:03:07;20.70;;;8.10;;
35442;SDS011;21561;55.654;37.592;2024-02-21T00:05:34;21.10;;;8.45;;
35442;SDS011;21561;55.654;37.592;2024-02-21T00:08:01;19.40;;;8.70;;
35442;SDS011;21561;55.654;37.592;2024-02-21T00:10:29;26.85;;;9.15;;
35442;SDS011;21561;55.654;37.592;2024-02-21T00:12:58;24.00;;;9.27;;
35442;SDS011;21561;55.654;37.592;2024-02-21T00:15:26;22.35;;;9.23;;
35442;SDS011;21561;55.654;37.592;2024-02-21T00:17:53;21.83;;;8.65;;
35442;SDS011;21561;55.654;37.592;2024-02-21T00:20:20;22.17;;;9.07;;
35442;SDS011;21561;55.654;37.592;2024-02-21T00:22:47;21.13;;;8.70;;
35442;SDS011;21561;55.654;37.592;2024-02-21T00:25:14;25.90;;;10.00;;
35442;SDS011;21561;55.654;37.592;2024-02-21T00:27:41;20.60;;;9.00;;
35442;SDS011;21561;55.654;37.592;2024-02-21T00:30:08;23.50;;;9.15;;
35442;SDS011;21561;55.654;37.592;2024-02-21T00:32:35;21.58;;;9.68;;
35442;SDS011;21561;55.654;37.592;2024-02-21T00:35:02;23.15;;;9.93;;
35442;SDS011;21561;55.654;37.592;2024-02-21T00:37:31;23.85;;;10.77;;
35442;SDS011;21561;55.654;37.592;2024-02-21T00:39:58;22.65;;;9.45;;
35442;SDS011;21561;55.654;37.592;2024-02-21T00:42:25;24.33;;;10.40;;
35442;SDS011;21561;55.654;37.592;2024-02-21T00:44:52;24.65;;;10.45;;
35442;SDS011;21561;55.654;37.592;2024-02-21T00:47:19;22.95;;;9.85;;
35442;SDS011;21561;55.654;37.592;2024-02-21T00:49:46;25.40;;;10.45;;
35442;SDS011;21561;55.654;37.592;2024-02-21T00:52:13;22.02;;;9.75;;
35442;SDS011;21561;55.654;37.592;2024-02-21T00:54:40;23.52;;;9.18;;
35442;SDS011;21561;55.654;37.592;2024-02-21T00:57:19;22.20;;;8.40;;
35442;SDS011;21561;55.654;37.592;2024-02-21T00:59:46;26.40;;;10.63;;
35442;SDS011;21561;55.654;37.592;2024-02-21T01:02:13;24.60;;;10.20;;
35442;SDS011;21561;55.654;37.592;2024-02-21T01:04:40;23.27;;;9.52;;
35442;SDS011;21561;55.654;37.592;2024-02-21T01:07:07;25.27;;;9.95;;
35442;SDS011;21561;55.654;37.592;2024-02-21T01:09:34;22.55;;;9.88;;
35442;SDS011;21561;55.654;37.592;2024-02-21T01:12:01;24.85;;;9.98;;
35442;SDS011;21561;55.654;37.592;2024-02-21T01:14:28;22.65;;;10.02;;
35442;SDS011;21561;55.654;37.592;2024-02-21T01:16:54;26.42;;;10.48;;
35442;SDS011;21561;55.654;37.592;2024-02-21T01:19:22;27.08;;;10.20;;
35442;SDS011;21561;55.654;37.592;2024-02-21T01:21:49;26.33;;;10.23;;
35442;SDS011;21561;55.654;37.592;2024-02-21T01:24:16;26.90;;;10.55;;
35442;SDS011;21561;55.654;37.592;2024-02-21T01:26:43;24.15;;;10.00;;
35442;SDS011;21561;55.654;37.592;2024-02-21T01:29:10;27.42;;;10.45;;
35442;SDS011;21561;55.654;37.592;2024-02-21T01:31:37;24.70;;;10.10;;
35442;SDS011;21561;55.654;37.592;2024-02-21T01:34:04;24.75;;;10.55;;
35442;SDS011;21561;55.654;37.592;2024-02-21T01:36:30;25.85;;;11.02;;
35442;SDS011;21561;55.654;37.592;2024-02-21T01:38:57;25.40;;;9.88;;
35442;SDS011;21561;55.654;37.592;2024-02-21T01:41:24;25.30;;;9.73;;
35442;SDS011;21561;55.654;37.592;2024-02-21T01:43:51;23.55;;;9.32;;
35442;SDS011;21561;55.654;37.592;2024-02-21T01:46:18;24.52;;;10.23;;
35442;SDS011;21561;55.654;37.592;2024-02-21T01:48:46;25.17;;;10.40;;
35442;SDS011;21561;55.654;37.592;2024-02-21T01:51:13;22.60;;;9.90;;
35442;SDS011;21561;55.654;37.592;2024-02-21T01:53:42;24.85;;;10.10;;
35442;SDS011;21561;55.654;37.592;2024-02-21T01:56:12;24.95;;;9.65;;
35442;SDS011;21561;55.654;37.592;2024-02-21T01:58:39;23.42;;;9.85;;
35442;SDS011;21561;55.654;37.592;2024-02-21T02:01:09;25.98;;;9.73;;
35442;SDS011;21561;55.654;37.592;2024-02-21T02:03:37;24.45;;;9.90;;
35442;SDS011;21561;55.654;37.592;2024-02-21T02:06:04;22.23;;;9.15;;
35442;SDS011;21561;55.654;37.592;2024-02-21T02:08:35;24.02;;;9.07;;
35442;SDS011;21561;55.654;37.592;2024-02-21T02:11:02;24.13;;;9.60;;
35442;SDS011;21561;55.654;37.592;2024-02-21T02:13:30;25.25;;;9.95;;
35442;SDS011;21561;55.654;37.592;2024-02-21T02:15:57;23.15;;;9.25;;
35442;SDS011;21561;55.654;37.592;2024-02-21T02:18:24;22.25;;;9.70;;
35442;SDS011;21561;55.654;37.592;2024-02-21T02:20:51;22.55;;;8.82;;
35442;SDS011;21561;55.654;37.592;2024-02-21T02:23:26;23.52;;;8.57;;
35442;SDS011;21561;55.654;37.592;2024-02-21T02:25:57;22.95;;;9.38;;
35442;SDS011;21561;55.654;37.592;2024-02-21T02:28:24;23.63;;;10.38;;
35442;SDS011;21561;55.654;37.592;2024-02-21T02:30:51;21.48;;;9.40;;
35442;SDS011;21561;55.654;37.592;2024-02-21T02:33:18;24.10;;;10.02;;
35442;SDS011;21561;55.654;37.592;2024-02-21T02:35:45;26.75;;;9.82;;
35442;SDS011;21561;55.654;37.592;2024-02-21T02:38:12;21.48;;;9.05;;
35442;SDS011;21561;55.654;37.592;2024-02-21T02:40:40;25.77;;;9.85;;
35442;SDS011;21561;55.654;37.592;2024-02-21T02:43:08;21.95;;;9.40;;
35442;SDS011;21561;55.654;37.592;2024-02-21T02:45:36;25.42;;;11.02;;
35442;SDS011;21561;55.654;37.592;2024-02-21T02:48:03;25.67;;;9.80;;
35442;SDS011;21561;55.654;37.592;2024-02-21T02:50:31;25.77;;;10.23;;
35442;SDS011;21561;55.654;37.592;2024-02-21T02:52:57;23.20;;;9.10;;
35442;SDS011;21561;55.654;37.592;2024-02-21T02:55:25;26.70;;;9.88;;
35442;SDS011;21561;55.654;37.592;2024-02-21T02:57:53;24.73;;;10.52;;
35442;SDS011;21561;55.654;37.592;2024-02-21T03:00:20;25.30;;;9.95;;
35442;SDS011;21561;55.654;37.592;2024-02-21T03:02:48;23.98;;;9.57;;
35442;SDS011;21561;55.654;37.592;2024-02-21T03:05:17;23.00;;;9.80;;
35442;SDS011;21561;55.654;37.592;2024-02-21T03:07:46;26.10;;;10.02;;
35442;SDS011;21561;55.654;37.592;2024-02-21T03:10:13;22.30;;;10.00;;
35442;SDS011;21561;55.654;37.592;2024-02-21T03:12:44;23.70;;;10.02;;
35442;SDS011;21561;55.654;37.592;2024-02-21T03:15:11;25.33;;;10.40;;
35442;SDS011;21561;55.654;37.592;2024-02-21T03:17:40;28.83;;;11.80;;
35442;SDS011;21561;55.654;37.592;2024-02-21T03:20:08;27.90;;;10.63;;
35442;SDS011;21561;55.654;37.592;2024-02-21T03:22:38;28.25;;;11.48;;
35442;SDS011;21561;55.654;37.592;2024-02-21T03:25:05;25.63;;;10.52;;
35442;SDS011;21561;55.654;37.592;2024-02-21T03:27:39;25.45;;;10.63;;
35442;SDS011;21561;55.654;37.592;2024-02-21T03:30:06;26.75;;;11.60;;
35442;SDS011;21561;55.654;37.592;2024-02-21T03:32:33;25.50;;;10.50;;
35442;SDS011;21561;55.654;37.592;2024-02-21T03:35:01;26.02;;;11.65;;
35442;SDS011;21561;55.654;37.592;2024-02-21T03:37:30;26.70;;;10.50;;
35442;SDS011;21561;55.654;37.592;2024-02-21T03:39:57;27.05;;;11.32;;
35442;SDS011;21561;55.654;37.592;2024-02-21T03:42:24;26.80;;;11.30;;
35442;SDS011;21561;55.654;37.592;2024-02-21T03:44:51;27.85;;;11.40;;
35442;SDS011;21561;55.654;37.592;2024-02-21T03:47:18;26.42;;;11.50;;
35442;SDS011;21561;55.654;37.592;2024-02-21T03:49:45;26.77;;;11.38;;
35442;SDS011;21561;55.654;37.592;2024-02-21T03:52:12;26.00;;;10.77;;
35442;SDS011;21561;55.654;37.592;2024-02-21T03:54:39;26.80;;;10.85;;
35442;SDS011;21561;55.654;37.592;2024-02-21T03:57:06;24.67;;;10.82;;
35442;SDS011;21561;55.654;37.592;2024-02-21T03:59:33;24.48;;;10.93;;
35442;SDS011;21561;55.654;37.592;2024-02-21T04:02:00;25.77;;;10.77;;
35442;SDS011;21561;55.654;37.592;2024-02-21T04:04:27;24.80;;;10.93;;
35442;SDS011;21561;55.654;37.592;2024-02-21T04:06:54;25.20;;;10.70;;
35442;SDS011;21561;55.654;37.592;2024-02-21T04:09:21;27.27;;;11.07;;
35442;SDS011;21561;55.654;37.592;2024-02-21T04:11:48;26.25;;;10.98;;
35442;SDS011;21561;55.654;37.592;2024-02-21T04:14:15;27.00;;;11.15;;
35442;SDS011;21561;55.654;37.592;2024-02-21T04:16:42;25.05;;;10.85;;
35442;SDS011;21561;55.654;37.592;2024-02-21T04:19:09;23.60;;;10.40;;
35442;SDS011;21561;55.654;37.592;2024-02-21T04:21:36;27.15;;;11.55;;
35442;SDS011;21561;55.654;37.592;2024-02-21T04:24:03;26.77;;;11.15;;
35442;SDS011;21561;55.654;37.592;2024-02-21T04:26:33;29.77;;;10.88;;
35442;SDS011;21561;55.654;37.592;2024-02-21T04:29:00;25.83;;;10.73;;
35442;SDS011;21561;55.654;37.592;2024-02-21T04:31:28;25.52;;;11.40;;
35442;SDS011;21561;55.654;37.592;2024-02-21T04:33:56;24.98;;;10.48;;
35442;SDS011;21561;55.654;37.592;2024-02-21T04:36:23;28.13;;;10.93;;
35442;SDS011;21561;55.654;37.592;2024-02-21T04:38:50;26.02;;;10.60;;
35442;SDS011;21561;55.654;37.592;2024-02-21T04:41:17;26.98;;;12.07;;
35442;SDS011;21561;55.654;37.592;2024-02-21T04:43:48;28.90;;;11.10;;
35442;SDS011;21561;55.654;37.592;2024-02-21T04:46:15;25.45;;;10.73;;
35442;SDS011;21561;55.654;37.592;2024-02-21T04:48:42;25.60;;;10.35;;
35442;SDS011;21561;55.654;37.592;2024-02-21T04:51:11;25.55;;;10.85;;
35442;SDS011;21561;55.654;37.592;2024-02-21T04:53:38;26.77;;;11.27;;
35442;SDS011;21561;55.654;37.592;2024-02-21T04:56:05;23.85;;;10.07;;
35442;SDS011;21561;55.654;37.592;2024-02-21T04:58:32;30.20;;;11.85;;
35442;SDS011;21561;55.654;37.592;2024-02-21T05:00:59;26.63;;;11.07;;
35442;SDS011;21561;55.654;37.592;2024-02-21T05:03:26;23.25;;;9.82;;
35442;SDS011;21561;55.654;37.592;2024-02-21T05:05:53;26.52;;;10.95;;
35442;SDS011;21561;55.654;37.592;2024-02-21T05:08:20;25.73;;;10.95;;
35442;SDS011;21561;55.654;37.592;2024-02-21T05:10:47;28.10;;;10.38;;
35442;SDS011;21561;55.654;37.592;2024-02-21T05:13:14;23.80;;;10.75;;
35442;SDS011;21561;55.654;37.592;2024-02-21T05:15:42;25.60;;;10.98;;
35442;SDS011;21561;55.654;37.592;2024-02-21T05:18:09;25.85;;;11.00;;
35442;SDS011;21561;55.654;37.592;2024-02-21T05:20:36;24.15;;;9.90;;
35442;SDS011;21561;55.654;37.592;2024-02-21T05:23:03;26.90;;;10.50;;
35442;SDS011;21561;55.654;37.592;2024-02-21T05:25:30;25.63;;;10.93;;
35442;SDS011;21561;55.654;37.592;2024-02-21T05:27:57;24.45;;;10.27;;
35442;SDS011;21561;55.654;37.592;2024-02-21T05:30:28;23.58;;;10.38;;
35442;SDS011;21561;55.654;37.592;2024-02-21T05:32:56;25.77;;;10.90;;
35442;SDS011;21561;55.654;37.592;2024-02-21T05:35:27;24.77;;;10.27;;
35442;SDS011;21561;55.654;37.592;2024-02-21T05:37:54;26.67;;;10.50;;
35442;SDS011;21561;55.654;37.592;2024-02-21T05:40:21;26.15;;;10.77;;
35442;SDS011;21561;55.654;37.592;2024-02-21T05:42:48;24.27;;;9.93;;
35442;SDS011;21561;55.654;37.592;2024-02-21T05:45:17;24.85;;;10.77;;
35442;SDS011;21561;55.654;37.592;2024-02-21T05:47:44;27.58;;;10.25;;
35442;SDS011;21561;55.654;37.592;2024-02-21T05:50:12;24.42;;;10.52;;
35442;SDS011;21561;55.654;37.592;2024-02-21T05:52:38;24.70;;;10.43;;
35442;SDS011;21561;55.654;37.592;2024-02-21T05:55:06;24.98;;;10.57;;
35442;SDS011;21561;55.654;37.592;2024-02-21T05:57:35;23.75;;;9.63;;
35442;SDS011;21561;55.654;37.592;2024-02-21T06:00:05;25.08;;;9.93;;
35442;SDS011;21561;55.654;37.592;2024-02-21T06:02:33;25.30;;;10.57;;
35442;SDS011;21561;55.654;37.592;2024-02-21T06:05:00;23.60;;;10.18;;
35442;SDS011;21561;55.654;37.592;2024-02-21T06:07:27;25.20;;;10.23;;
35442;SDS011;21561;55.654;37.592;2024-02-21T06:09:54;25.73;;;10.75;;
35442;SDS011;21561;55.654;37.592;2024-02-21T06:12:21;25.80;;;10.95;;
35442;SDS011;21561;55.654;37.592;2024-02-21T06:14:48;26.30;;;10.68;;
35442;SDS011;21561;55.654;37.592;2024-02-21T06:17:15;24.00;;;10.35;;
35442;SDS011;21561;55.654;37.592;2024-02-21T06:19:42;24.35;;;10.40;;
35442;SDS011;21561;55.654;37.592;2024-02-21T06:22:11;28.00;;;10.32;;
35442;SDS011;21561;55.654;37.592;2024-02-21T06:24:38;24.08;;;10.07;;
35442;SDS011;21561;55.654;37.592;2024-02-21T06:27:05;27.33;;;11.13;;
35442;SDS011;21561;55.654;37.592;2024-02-21T06:29:36;23.85;;;10.15;;
35442;SDS011;21561;55.654;37.592;2024-02-21T06:32:03;26.45;;;10.05;;
35442;SDS011;21561;55.654;37.592;2024-02-21T06:34:31;23.77;;;10.07;;
35442;SDS011;21561;55.654;37.592;2024-02-21T06:37:04;25.95;;;10.90;;
35442;SDS011;21561;55.654;37.592;2024-02-21T06:39:31;26.38;;;10.25;;
35442;SDS011;21561;55.654;37.592;2024-02-21T06:41:58;24.10;;;10.65;;
35442;SDS011;21561;55.654;37.592;2024-02-21T06:44:29;26.67;;;10.52;;
35442;SDS011;21561;55.654;37.592;2024-02-21T06:46:56;25.48;;;10.57;;
35442;SDS011;21561;55.654;37.592;2024-02-21T06:49:23;25.33;;;10.55;;
35442;SDS011;21561;55.654;37.592;2024-02-21T06:51:50;25.67;;;10.40;;
35442;SDS011;21561;55.654;37.592;2024-02-21T06:54:17;26.23;;;10.57;;
35442;SDS011;21561;55.654;37.592;2024-02-21T06:56:44;25.65;;;10.98;;
35442;SDS011;21561;55.654;37.592;2024-02-21T06:59:11;27.17;;;11.02;;
35442;SDS011;21561;55.654;37.592;2024-02-21T07:01:48;26.67;;;10.73;;
35442;SDS011;21561;55.654;37.592;2024-02-21T07:04:16;28.45;;;11.18;;
35442;SDS011;21561;55.654;37.592;2024-02-21T07:06:43;24.52;;;10.90;;
35442;SDS011;21561;55.654;37.592;2024-02-21T07:09:10;25.98;;;10.88;;
35442;SDS011;21561;55.654;37.592;2024-02-21T07:11:37;25.27;;;10.35;;
35442;SDS011;21561;55.654;37.592;2024-02-21T07:14:04;26.83;;;10.63;;
35442;SDS011;21561;55.654;37.592;2024-02-21T07:16:31;24.63;;;10.48;;
35442;SDS011;21561;55.654;37.592;2024-02-21T07:19:00;23.92;;;10.20;;
35442;SDS011;21561;55.654;37.592;2024-02-21T07:21:27;25.02;;;10.35;;
35442;SDS011;21561;55.654;37.592;2024-02-21T07:23:54;26.85;;;10.80;;
35442;SDS011;21561;55.654;37.592;2024-02-21T07:26:21;27.52;;;10.82;;
35442;SDS011;21561;55.654;37.592;2024-02-21T07:28:49;27.52;;;10.63;;
35442;SDS011;21561;55.654;37.592;2024-02-21T07:31:16;23.55;;;9.48;;
35442;SDS011;21561;55.654;37.592;2024-02-21T07:33:44;22.20;;;8.65;;
35442;SDS011;21561;55.654;37.592;2024-02-21T07:36:11;24.35;;;9.55;;
35442;SDS011;21561;55.654;37.592;2024-02-21T07:38:38;24.98;;;9.90;;
35442;SDS011;21561;55.654;37.592;2024-02-21T07:41:06;23.85;;;9.75;;
35442;SDS011;21561;55.654;37.592;2024-02-21T07:43:33;25.17;;;10.98;;
35442;SDS011;21561;55.654;37.592;2024-02-21T07:46:00;21.17;;;8.93;;
35442;SDS011;21561;55.654;37.592;2024-02-21T07:48:27;24.20;;;10.07;;
35442;SDS011;21561;55.654;37.592;2024-02-21T07:50:56;24.35;;;10.45;;
35442;SDS011;21561;55.654;37.592;2024-02-21T07:53:23;24.77;;;9.95;;
35442;SDS011;21561;55.654;37.592;2024-02-21T07:55:50;25.67;;;10.20;;
35442;SDS011;21561;55.654;37.592;2024-02-21T07:58:17;25.88;;;10.55;;
35442;SDS011;21561;55.654;37.592;2024-02-21T08:00:44;28.08;;;10.43;;
35442;SDS011;21561;55.654;37.592;2024-02-21T08:03:11;25.33;;;10.15;;
35442;SDS011;21561;55.654;37.592;2024-02-21T08:05:38;25.13;;;10.07;;
35442;SDS011;21561;55.654;37.592;2024-02-21T08:08:05;28.30;;;11.52;;
35442;SDS011;21561;55.654;37.592;2024-02-21T08:10:34;24.48;;;10.48;;
35442;SDS011;21561;55.654;37.592;2024-02-21T08:13:01;24.50;;;9.70;;
35442;SDS011;21561;55.654;37.592;2024-02-21T08:15:28;24.05;;;10.05;;
35442;SDS011;21561;55.654;37.592;2024-02-21T08:17:56;24.75;;;9.68;;
35442;SDS011;21561;55.654;37.592;2024-02-21T08:20:27;24.73;;;10.27;;
35442;SDS011;21561;55.654;37.592;2024-02-21T08:22:54;26.48;;;10.38;;
35442;SDS011;21561;55.654;37.592;2024-02-21T08:25:21;29.42;;;10.05;;
35442;SDS011;21561;55.654;37.592;2024-02-21T08:27:48;25.77;;;11.30;;
35442;SDS011;21561;55.654;37.592;2024-02-21T08:30:15;24.83;;;10.52;;
35442;SDS011;21561;55.654;37.592;2024-02-21T08:32:42;24.77;;;10.38;;
35442;SDS011;21561;55.654;37.592;2024-02-21T08:35:09;27.35;;;11.15;;
35442;SDS011;21561;55.654;37.592;2024-02-21T08:37:37;25.50;;;10.10;;
35442;SDS011;21561;55.654;37.592;2024-02-21T08:40:04;25.00;;;10.77;;
35442;SDS011;21561;55.654;37.592;2024-02-21T08:42:35;24.83;;;10.20;;
35442;SDS011;21561;55.654;37.592;2024-02-21T08:45:03;25.80;;;11.07;;
35442;SDS011;21561;55.654;37.592;2024-02-21T08:47:31;24.77;;;10.25;;
35442;SDS011;21561;55.654;37.592;2024-02-21T08:49:58;25.40;;;9.43;;
35442;SDS011;21561;55.654;37.592;2024-02-21T08:52:30;25.35;;;9.85;;
35442;SDS011;21561;55.654;37.592;2024-02-21T08:54:58;24.30;;;9.63;;
35442;SDS011;21561;55.654;37.592;2024-02-21T08:57:25;24.52;;;10.13;;
35442;SDS011;21561;55.654;37.592;2024-02-21T08:59:52;23.92;;;9.63;;
35442;SDS011;21561;55.654;37.592;2024-02-21T09:02:19;24.13;;;10.05;;
35442;SDS011;21561;55.654;37.592;2024-02-21T09:04:46;27.23;;;10.57;;
35442;SDS011;21561;55.654;37.592;2024-02-21T09:07:14;24.83;;;10.50;;
35442;SDS011;21561;55.654;37.592;2024-02-21T09:09:41;22.70;;;10.15;;
35442;SDS011;21561;55.654;37.592;2024-02-21T09:12:07;26.25;;;10.90;;
35442;SDS011;21561;55.654;37.592;2024-02-21T09:14:36;22.58;;;9.77;;
35442;SDS011;21561;55.654;37.592;2024-02-21T09:19:35;24.52;;;9.07;;
35442;SDS011;21561;55.654;37.592;2024-02-21T09:22:02;23.42;;;10.23;;
35442;SDS011;21561;55.654;37.592;2024-02-21T09:24:29;23.70;;;9.57;;
35442;SDS011;21561;55.654;37.592;2024-02-21T09:26:56;27.25;;;9.48;;
35442;SDS011;21561;55.654;37.592;2024-02-21T09:29:23;29.73;;;10.13;;
35442;SDS011;21561;55.654;37.592;2024-02-21T09:31:53;25.65;;;10.38;;
35442;SDS011;21561;55.654;37.592;2024-02-21T09:34:23;23.42;;;10.13;;
35442;SDS011;21561;55.654;37.592;2024-02-21T09:36:50;26.15;;;10.90;;
35442;SDS011;21561;55.654;37.592;2024-02-21T09:39:17;26.88;;;11.02;;
35442;SDS011;21561;55.654;37.592;2024-02-21T09:41:45;23.42;;;10.48;;
35442;SDS011;21561;55.654;37.592;2024-02-21T09:44:22;25.17;;;10.43;;
35442;SDS011;21561;55.654;37.592;2024-02-21T09:49:34;25.65;;;10.48;;
35442;SDS011;21561;55.654;37.592;2024-02-21T09:52:05;25.58;;;9.93;;
35442;SDS011;21561;55.654;37.592;2024-02-21T09:54:35;23.98;;;10.18;;
35442;SDS011;21561;55.654;37.592;2024-02-21T09:57:03;24.45;;;10.05;;
35442;SDS011;21561;55.654;37.592;2024-02-21T09:59:32;24.38;;;9.77;;
35442;SDS011;21561;55.654;37.592;2024-02-21T10:01:59;25.45;;;10.82;;
35442;SDS011;21561;55.654;37.592;2024-02-21T10:04:30;24.55;;;10.52;;
35442;SDS011;21561;55.654;37.592;2024-02-21T10:06:57;26.52;;;10.23;;
35442;SDS011;21561;55.654;37.592;2024-02-21T10:09:25;24.38;;;10.55;;
35442;SDS011;21561;55.654;37.592;2024-02-21T10:12:07;26.70;;;11.15;;
35442;SDS011;21561;55.654;37.592;2024-02-21T10:14:36;27.85;;;10.55;;
35442;SDS011;21561;55.654;37.592;2024-02-21T10:17:03;23.65;;;9.35;;
35442;SDS011;21561;55.654;37.592;2024-02-21T10:19:36;23.55;;;10.15;;
35442;SDS011;21561;55.654;37.592;2024-02-21T10:22:05;24.75;;;9.85;;
35442;SDS011;21561;55.654;37.592;2024-02-21T10:24:34;24.15;;;9.43;;
35442;SDS011;21561;55.654;37.592;2024-02-21T10:27:08;24.25;;;9.50;;
35442;SDS011;21561;55.654;37.592;2024-02-21T10:29:38;23.27;;;10.40;;
35442;SDS011;21561;55.654;37.592;2024-02-21T10:32:09;22.67;;;9.73;;
35442;SDS011;21561;55.654;37.592;2024-02-21T10:34:41;22.35;;;9.05;;
35442;SDS011;21561;55.654;37.592;2024-02-21T10:37:10;23.33;;;9.85;;
35442;SDS011;21561;55.654;37.592;2024-02-21T10:39:38;22.27;;;9.02;;
35442;SDS011;21561;55.654;37.592;2024-02-21T10:42:07;24.67;;;10.55;;
35442;SDS011;21561;55.654;37.592;2024-02-21T10:44:38;25.90;;;8.90;;
35442;SDS011;21561;55.654;37.592;2024-02-21T10:47:07;22.67;;;8.77;;
35442;SDS011;21561;55.654;37.592;2024-02-21T10:49:39;22.88;;;8.95;;
35442;SDS011;21561;55.654;37.592;2024-02-21T10:55:10;22.95;;;8.75;;
35442;SDS011;21561;55.654;37.592;2024-02-21T10:57:46;25.40;;;7.80;;
35442;SDS011;21561;55.654;37.592;2024-02-21T11:00:14;21.13;;;9.20;;
35442;SDS011;21561;55.654;37.592;2024-02-21T11:02:45;20.52;;;8.23;;
35442;SDS011;21561;55.654;37.592;2024-02-21T11:05:14;22.33;;;8.52;;
35442;SDS011;21561;55.654;37.592;2024-02-21T11:07:42;20.58;;;8.20;;
35442;SDS011;21561;55.654;37.592;2024-02-21T11:10:25;24.65;;;8.50;;
35442;SDS011;21561;55.654;37.592;2024-02-21T11:12:54;22.42;;;8.60;;
35442;SDS011;21561;55.654;37.592;2024-02-21T11:15:34;24.15;;;10.05;;
35442;SDS011;21561;55.654;37.592;2024-02-21T11:18:01;22.10;;;9.10;;
35442;SDS011;21561;55.654;37.592;2024-02-21T11:20:36;21.92;;;9.00;;
35442;SDS011;21561;55.654;37.592;2024-02-21T11:23:04;22.58;;;8.60;;
35442;SDS011;21561;55.654;37.592;2024-02-21T11:25:32;19.25;;;7.38;;
35442;SDS011;21561;55.654;37.592;2024-02-21T11:28:01;21.08;;;8.05;;
35442;SDS011;21561;55.654;37.592;2024-02-21T11:30:35;23.08;;;8.32;;
35442;SDS011;21561;55.654;37.592;2024-02-21T11:33:03;19.25;;;7.93;;
35442;SDS011;21561;55.654;37.592;2024-02-21T11:35:33;19.45;;;7.70;;
35442;SDS011;21561;55.654;37.592;2024-02-21T11:38:08;18.77;;;7.80;;
35442;SDS011;21561;55.654;37.592;2024-02-21T11:40:45;23.05;;;8.95;;
35442;SDS011;21561;55.654;37.592;2024-02-21T11:43:13;22.88;;;8.68;;
35442;SDS011;21561;55.654;37.592;2024-02-21T11:45:41;21.40;;;8.57;;
35442;SDS011;21561;55.654;37.592;2024-02-21T11:48:08;22.65;;;8.68;;
35442;SDS011;21561;55.654;37.592;2024-02-21T11:50:36;22.92;;;8.68;;
35442;SDS011;21561;55.654;37.592;2024-02-21T11:53:03;20.10;;;7.95;;
35442;SDS011;21561;55.654;37.592;2024-02-21T11:55:30;19.48;;;7.90;;
35442;SDS011;21561;55.654;37.592;2024-02-21T11:57:58;21.92;;;8.60;;
35442;SDS011;21561;55.654;37.592;2024-02-21T12:00:25;20.73;;;8.50;;
35442;SDS011;21561;55.654;37.592;2024-02-21T12:02:52;22.48;;;8.77;;
35442;SDS011;21561;55.654;37.592;2024-02-21T12:05:19;19.70;;;7.85;;
35442;SDS011;21561;55.654;37.592;2024-02-21T12:07:47;21.77;;;8.55;;
35442;SDS011;21561;55.654;37.592;2024-02-21T12:10:14;20.08;;;8.27;;
35442;SDS011;21561;55.654;37.592;2024-02-21T12:12:41;21.48;;;8.00;;
35442;SDS011;21561;55.654;37.592;2024-02-21T12:15:08;23.30;;;9.00;;
35442;SDS011;21561;55.654;37.592;2024-02-21T12:17:36;22.50;;;9.05;;
35442;SDS011;21561;55.654;37.592;2024-02-21T12:20:04;23.30;;;8.32;;
35442;SDS011;21561;55.654;37.592;2024-02-21T12:22:32;21.63;;;8.57;;
35442;SDS011;21561;55.654;37.592;2024-02-21T12:25:00;22.02;;;8.52;;
35442;SDS011;21561;55.654;37.592;2024-02-21T12:27:32;21.05;;;8.80;;
35442;SDS011;21561;55.654;37.592;2024-02-21T12:29:59;21.63;;;8.40;;
35442;SDS011;21561;55.654;37.592;2024-02-21T12:32:29;22.65;;;8.40;;
35442;SDS011;21561;55.654;37.592;2024-02-21T12:34:56;20.88;;;8.38;;
35442;SDS011;21561;55.654;37.592;2024-02-21T12:37:23;20.42;;;8.02;;
35442;SDS011;21561;55.654;37.592;2024-02-21T12:39:51;20.75;;;8.25;;
35442;SDS011;21561;55.654;37.592;2024-02-21T12:42:18;23.08;;;8.85;;
35442;SDS011;21561;55.654;37.592;2024-02-21T12:44:45;21.95;;;8.50;;
35442;SDS011;21561;55.654;37.592;2024-02-21T12:47:12;22.73;;;8.85;;
35442;SDS011;21561;55.654;37.592;2024-02-21T12:49:39;21.08;;;8.70;;
35442;SDS011;21561;55.654;37.592;2024-02-21T12:52:11;20.88;;;9.25;;
35442;SDS011;21561;55.654;37.592;2024-02-21T12:54:40;21.33;;;8.45;;
35442;SDS011;21561;55.654;37.592;2024-02-21T12:57:08;22.90;;;8.02;;
35442;SDS011;21561;55.654;37.592;2024-02-21T12:59:35;23.75;;;8.65;;
35442;SDS011;21561;55.654;37.592;2024-02-21T13:02:02;21.48;;;8.25;;
35442;SDS011;21561;55.654;37.592;2024-02-21T13:04:29;21.58;;;8.23;;
35442;SDS011;21561;55.654;37.592;2024-02-21T13:06:56;20.42;;;8.30;;
35442;SDS011;21561;55.654;37.592;2024-02-21T13:09:23;23.75;;;8.73;;
35442;SDS011;21561;55.654;37.592;2024-02-21T13:11:50;22.17;;;8.73;;
35442;SDS011;21561;55.654;37.592;2024-02-21T13:14:18;21.92;;;8.38;;
35442;SDS011;21561;55.654;37.592;2024-02-21T13:16:45;23.40;;;8.35;;
35442;SDS011;21561;55.654;37.592;2024-02-21T13:19:12;20.77;;;8.55;;
35442;SDS011;21561;55.654;37.592;2024-02-21T13:21:40;21.38;;;8.23;;
35442;SDS011;21561;55.654;37.592;2024-02-21T13:24:07;21.23;;;8.48;;
35442;SDS011;21561;55.654;37.592;2024-02-21T13:26:34;21.60;;;8.52;;
35442;SDS011;21561;55.654;37.592;2024-02-21T13:29:01;21.17;;;7.78;;
35442;SDS011;21561;55.654;37.592;2024-02-21T13:31:30;19.80;;;8.15;;
35442;SDS011;21561;55.654;37.592;2024-02-21T13:33:57;21.08;;;8.77;;
35442;SDS011;21561;55.654;37.592;2024-02-21T13:36:24;21.77;;;8.00;;
35442;SDS011;21561;55.654;37.592;2024-02-21T13:38:51;23.35;;;8.60;;
35442;SDS011;21561;55.654;37.592;2024-02-21T13:41:19;26.20;;;9.30;;
35442;SDS011;21561;55.654;37.592;2024-02-21T13:43:48;22.10;;;8.55;;
35442;SDS011;21561;55.654;37.592;2024-02-21T13:46:15;25.05;;;9.57;;
35442;SDS011;21561;55.654;37.592;2024-02-21T13:48:42;21.48;;;8.95;;
35442;SDS011;21561;55.654;37.592;2024-02-21T13:51:09;23.23;;;9.00;;
35442;SDS011;21561;55.654;37.592;2024-02-21T13:53:36;20.67;;;8.52;;
35442;SDS011;21561;55.654;37.592;2024-02-21T13:56:03;22.25;;;9.20;;
35442;SDS011;21561;55.654;37.592;2024-02-21T13:58:30;24.80;;;9.02;;
35442;SDS011;21561;55.654;37.592;2024-02-21T14:00:57;21.30;;;8.63;;
35442;SDS011;21561;55.654;37.592;2024-02-21T14:03:24;23.77;;;9.13;;
35442;SDS011;21561;55.654;37.592;2024-02-21T14:05:52;23.50;;;9.18;;
35442;SDS011;21561;55.654;37.592;2024-02-21T14:08:19;25.15;;;9.77;;
35442;SDS011;21561;55.654;37.592;2024-02-21T14:10:46;24.15;;;9.43;;
35442;SDS011;21561;55.654;37.592;2024-02-21T14:13:14;22.90;;;8.98;;
35442;SDS011;21561;55.654;37.592;2024-02-21T14:15:43;21.13;;;8.73;;
35442;SDS011;21561;55.654;37.592;2024-02-21T14:18:12;22.50;;;9.30;;
35442;SDS011;21561;55.654;37.592;2024-02-21T14:20:47;22.77;;;9.30;;
35442;SDS011;21561;55.654;37.592;2024-02-21T14:23:14;20.92;;;8.70;;
35442;SDS011;21561;55.654;37.592;2024-02-21T14:25:41;21.98;;;8.57;;
35442;SDS011;21561;55.654;37.592;2024-02-21T14:28:09;21.17;;;8.10;;